Weather observations for the past three days for
Marquette Sawyer Regional Airport
Imperial (Metric)
Date Time (edt) Wind (mph) Vis. (mi.) Weather Sky Cond. Temperature (ºF) Relative Humidity Wind Chill (°F) Heat Index (°F) Pressure Precipitation (in)
Air Dwpt 6 hour altimeter (in) sea level (mb) 1 hr 3 hr 6 hr
Max. Min.
01 16:47 SW 14 G 24 10.00 Fair CLR 89.6 53.6 29% 87 29.86 0.0
01 15:47 SW 15 10.00 Fair CLR 89.6 55.4 31% 88 29.87 0.0
01 14:47 W 13 10.00 Fair CLR 87.8 55.4 33% 86 29.89 0.0
01 13:45 SW 14 G 20 10.00 Fair CLR 86 59 40% 85 29.9 0.0
01 12:45 S 12 10.00 Fair CLR 82.4 66.2 58% 85 29.92 0.0
01 11:45 S 12 10.00 Fair CLR 78.8 68 70% 81 29.94 0.0
01 10:45 SW 9 10.00 Fair CLR 75.2 66.2 74% 77 29.94 0.0
01 09:45 SW 6 10.00 Fair CLR 69.8 69.8 100% 29.94 0.0
01 08:45 SW 1 8.00 A Few Clouds FEW001 64.4 64.4 100% 29.94 0.0
01 07:45 NW 2 0.19 Fog VV000 59 59 100% 29.94 0.0
01 06:45 SW 2 0.19 Fog VV002 62.6 62.6 100% 29.92 0.0
01 05:58 SW 3 0.15 Fog VV000 64.4 64.4 100% 29.92 0.0
01 05:38 SW 3 0.15 Fog VV000 62.6 62.6 100% 29.92 0.0
01 05:18 SW 2 0.15 Fog VV000 62.6 62.6 100% 29.92 0.0
01 04:58 W 2 0.15 Fog VV000 62.6 62.6 100% 29.92 0.0
01 04:38 NW 2 0.25 Fog VV002 64.4 64.4 100% 29.92 0.0
01 04:18 W 1 0.25 Fog VV002 66.2 66.2 100% 29.91 0.0
01 03:58 Calm 0.15 Fog BKN001 BKN009 66.2 66.2 100% 29.92 0.0
01 03:38 N 2 0.25 Fog BKN001 BKN009 66.2 66.2 100% 29.92 0.0
01 03:18 NW 2 0.25 Fog VV002 66.2 66.2 100% 29.91 0.0
01 02:58 SW 2 0.25 Fog VV002 68 68 100% 29.91 0.0
01 02:38 Calm 0.15 Fog VV000 68 68 100% 29.91 0.0
01 02:18 W 2 0.15 Fog VV000 68 68 100% 29.92 0.0
01 01:58 NW 2 0.25 Fog VV002 68 68 100% 29.92 0.0
01 01:38 N 1 0.25 Fog VV002 68 68 100% 29.92 0.0
01 01:18 Calm 0.15 Fog VV000 68 68 100% 29.92 0.0
01 00:58 S 3 0.15 Fog VV000 68 68 100% 29.91 0.0
01 00:38 S 3 0.25 Fog BKN002 69.8 69.8 100% 29.9 0.0
01 00:18 S 5 1.00 Fog/Mist OVC002 69.8 69.8 100% 29.91 0.0
31 23:58 S 5 2.50 Fog/Mist SCT002 69.8 69.8 100% 29.9 0.0
31 23:38 S 7 5.00 Fog/Mist CLR 69.8 69.8 100% 29.9 0.0
31 23:18 S 7 6.00 Fog/Mist FEW020 69.8 69.8 100% 29.9 0.0
31 22:58 S 7 9.00 Partly Cloudy SCT020 SCT025 SCT032 71.6 69.8 94% 29.9 0.0
31 22:38 S 6 10.00 Mostly Cloudy BKN022 71.6 71.6 100% 29.9 0.0
31 22:18 S 6 10.00 Overcast OVC022 73.4 71.6 94% 29.9 0.0
31 21:46 S 6 8.00 Overcast BKN024 OVC028 75.2 71.6 89% 75 29.9 0.0
31 20:46 SW 3 10.00 Overcast BKN028 BKN034 OVC040 77 71.6 83% 78 29.87 0.0
31 19:46 S 3 10.00 Mostly Cloudy SCT036 BKN048 78.8 71.6 79% 82 29.87 0.0
31 18:46 SW 6 10.00 Overcast OVC027 78.8 71.6 79% 82 29.87 0.0
31 17:46 W 2 10.00 Overcast OVC025 78.8 69.8 74% 81 29.85 0.0
31 16:46 SE 2 10.00 Overcast OVC023 78.8 71.6 79% 82 29.84 0.0
31 15:46 SW 5 10.00 Overcast OVC021 78.8 69.8 74% 81 29.85 0.0
31 14:46 S 9 10.00 Overcast BKN018 OVC025 77 69.8 79% 79 29.86 0.0
31 13:46 SW 10 10.00 Overcast FEW012 OVC018 75.2 69.8 83% 75 29.88 0.0
31 12:46 S 13 G 20 9.00 Overcast OVC009 75.2 69.8 83% 75 29.87 0.0
31 11:47 S 12 8.00 Overcast OVC005 71.6 69.8 94% 29.89 0.0
31 10:47 S 9 10.00 Overcast OVC003 69.8 68 94% 29.89 0.0
31 09:47 S 9 6.00 Fog/Mist OVC001 68 68 100% 29.89 0.0
31 08:47 S 8 3.00 Fog/Mist OVC001 66.2 66.2 100% 29.9 0.0
31 07:47 S 9 3.00 Fog/Mist OVC001 64.4 64.4 100% 29.9 0.0
31 06:47 S 10 0.50 Thunderstorm in Vicinity Fog VV005 64.4 64.4 100% 29.91 0.0
31 05:58 S 6 0.50 Fog VV005 64.4 64.4 100% 29.91 0.0
31 05:38 SE 7 0.75 Fog/Mist BKN001 64.4 64.4 100% 29.91 0.0
31 05:18 S 8 3.00 Fog/Mist OVC001 64.4 64.4 100% 29.92 0.0
31 04:58 S 8 6.00 Light Rain Fog/Mist OVC003 64.4 64.4 100% 29.94 0.0
31 04:38 S 10 7.00 Light Rain Fog/Mist OVC003 64.4 64.4 100% 29.94 0.0
31 04:18 S 9 7.00 Light Rain Fog/Mist OVC003 64.4 64.4 100% 29.95 0.0
31 03:58 S 8 2.50 Thunderstorm Light Rain Fog/Mist OVC003 64.4 64.4 100% 29.95 0.0
31 03:38 E 6 1.50 Heavy Rain Fog/Mist OVC001 64.4 64.4 100% 29.96 0.0
31 03:18 SE 6 1.75 Fog/Mist OVC001 64.4 64.4 100% 29.96 0.0
31 02:58 SE 7 2.50 Fog/Mist OVC001 64.4 64.4 100% 29.98 0.0
31 02:38 S 7 4.00 Fog/Mist OVC001 64.4 64.4 100% 29.98 0.0
31 02:18 SE 5 4.00 Thunderstorm in Vicinity Fog/Mist OVC001 64.4 64.4 100% 29.97 0.0
31 01:58 SE 3 4.00 Thunderstorm in Vicinity Fog/Mist OVC001 64.4 64.4 100% 29.97 0.0
31 01:38 S 8 4.00 Fog/Mist OVC001 64.4 64.4 100% 29.99 0.0
31 01:18 S 8 3.00 Fog/Mist OVC001 64.4 64.4 100% 29.99 0.0
31 00:38 SE 6 3.00 Fog/Mist OVC001 64.4 64.4 100% 29.98 0.0
31 00:18 SE 5 2.50 Fog/Mist BKN001 64.4 64.4 100% 29.98 0.0
30 23:58 S 6 1.00 Fog/Mist CLR 64.4 64.4 100% 29.98 0.0
30 23:38 S 7 0.50 Fog VV005 64.4 64.4 100% 29.98 0.0
30 23:18 S 7 0.50 Fog VV005 64.4 64.4 100% 29.99 0.0
30 22:58 SE 5 1.00 Fog/Mist CLR 64.4 64.4 100% 29.99 0.0
30 22:38 SE 5 1.25 Fog/Mist SCT001 64.4 64.4 100% 29.98 0.0
30 22:18 SE 8 2.00 Fog/Mist OVC001 64.4 64.4 100% 29.98 0.0
30 21:49 SE 6 3.00 Fog/Mist OVC001 66.2 66.2 100% 29.98 0.0
30 20:50 SE 8 1.50 Fog/Mist OVC003 66.2 66.2 100% 29.96 0.0
30 19:50 E 5 10.00 Overcast OVC005 66.2 66.2 100% 29.97 0.0
30 18:51 E 7 10.00 Overcast OVC005 68 66.2 94% 29.96 0.0
30 16:50 NE 8 10.00 Fog/Mist OVC007 68 64.4 88% 29.96 0.0
30 15:50 NE 7 10.00 Overcast OVC009 68 64.4 88% 29.96 0.0
30 14:50 NE 6 10.00 Overcast OVC010 68 64.4 88% 29.97 0.0
30 13:50 NE 7 10.00 Overcast OVC014 69.8 64.4 83% 29.96 0.0
30 12:50 E 7 10.00 Overcast OVC014 68 64.4 88% 29.97 0.0
30 11:47 NE 12 8.00 Overcast OVC010 68 64.4 88% 29.96 0.0
30 10:47 E 7 3.00 Fog/Mist OVC001 64.4 64.4 100% 29.96 0.0
30 09:47 NE 7 0.15 Sky Obscured VV000 64.4 64.4 100% 29.96 0.0
30 08:47 NE 9 0.15 Fog VV000 62.6 62.6 100% 29.96 0.0
30 07:47 NE 5 0.15 Fog VV000 62.6 62.6 100% 29.95 0.0
30 06:47 NE 3 0.50 Fog VV005 62.6 62.6 100% 29.94 0.0
30 05:58 E 3 4.00 Fog/Mist OVC001 64.4 64.4 100% 29.94 0.0
30 05:38 SE 3 6.00 Fog/Mist OVC001 64.4 64.4 100% 29.94 0.0
30 05:18 E 5 6.00 Fog/Mist OVC001 62.6 62.6 100% 29.94 0.0
30 04:58 SE 6 7.00 Fog/Mist OVC001 62.6 62.6 100% 29.95 0.0
30 04:38 SE 6 9.00 Overcast OVC001 62.6 62.6 100% 29.95 0.0
30 04:18 SE 6 8.00 Overcast OVC001 62.6 62.6 100% 29.95 0.0
30 03:58 SE 8 9.00 Overcast OVC001 62.6 62.6 100% 29.95 0.0
30 03:38 SE 6 5.00 Fog/Mist OVC001 62.6 62.6 100% 29.96 0.0
30 03:18 SE 6 3.00 Light Drizzle Fog/Mist OVC001 62.6 62.6 100% 29.97 0.0
30 02:58 S 6 4.00 Fog/Mist OVC001 62.6 62.6 100% 29.97 0.0
30 02:38 SE 6 4.00 Fog/Mist OVC001 62.6 62.6 100% 29.98 0.0
30 02:18 S 7 5.00 Fog/Mist OVC003 62.6 62.6 100% 29.98 0.0
30 01:58 S 6 10.00 Overcast OVC003 62.6 60.8 94% 29.99 0.0
30 01:38 S 6 10.00 Overcast BKN005 OVC043 60.8 60.8 100% 30 0.0
30 01:18 S 8 10.00 Overcast SCT003 BKN008 OVC043 60.8 60.8 100% 30 0.0
30 00:58 S 7 10.00 Overcast SCT003 SCT032 OVC043 60.8 60.8 100% 30 0.0
30 00:38 S 6 10.00 Overcast FEW003 OVC039 60.8 60.8 100% 30 0.0
30 00:18 S 6 10.00 Overcast OVC039 60.8 60.8 100% 30 0.0
29 23:58 S 5 10.00 Mostly Cloudy BKN041 BKN110 60.8 60.8 100% 30 0.0
29 23:38 S 7 10.00 Mostly Cloudy SCT050 BKN110 60.8 60.8 100% 30 0.0
29 23:18 S 7 10.00 Overcast SCT043 BKN050 OVC110 62.6 60.8 94% 30 0.0
29 22:58 S 10 10.00 Overcast SCT010 SCT026 OVC041 62.6 60.8 94% 30 0.0
29 22:38 S 12 10.00 Overcast BKN010 OVC025 62.6 60.8 94% 30 0.0
29 22:18 S 12 10.00 Mostly Cloudy BKN010 BKN016 62.6 60.8 94% 30 0.0
29 21:45 S 10 10.00 Overcast OVC010 64.4 62.6 94% 30 0.0
29 20:45 SW 14 10.00 Overcast SCT015 BKN020 OVC110 66.2 64.4 94% 29.99 0.0
29 19:45 S 8 10.00 Mostly Cloudy FEW039 BKN095 66.2 64.4 94% 29.99 0.0
29 18:45 SW 7 10.00 Overcast FEW060 SCT075 OVC085 66.2 66.2 100% 29.99 0.0
29 17:45 SW 7 10.00 Overcast BKN021 OVC033 66.2 64.4 94% 30 0.0
Date Time (edt) Wind (mph) Vis. (mi.) Weather Sky Cond. Air Dwpt Max. Min. Relative Humidity Wind Chill (°F) Heat Index (°F) altimeter (in) sea level (mb) 1 hr 3 hr 6 hr
6 hour
Temperature (ºF) Pressure Precipitation (in)